Paynes Find, Australia
Current Conditions -  °F | °C
As of 9:30 AM on Thursday 27 Nov 2014 (Local Time) from YGEL Reporting Station
Scattered Clouds Scattered Clouds  
Wind Chill: 79°   Ceiling: Unl
Heat Index: 80°   Visibility: 6mi
Dew Point: 63°   Wind: 17mph
Humidity: 57%   Direction: 310°NW
Pressure: 29.83"   Gusts: NA
Location:  29.26°S, 117.69°E
Report Text: YGEL 270130Z 31015KT 9999 SCT020 26/17 Q1010
Loading
Personal Weather Stations






























Interactive Weather Map New forecast layout! Learn more

10-Day Weather Forecast

Advertisements
Track Severe Weather on mobile